Mariner A — 9HVA7 — position and weather

sailwx.info

Track history (hours):
 
Tides and Currents Weather Stations Pressure Air Temp Water Temp Dewpoint Dewpoint Depression Visibility Wind Speed Wind Dir Waves Ship Positions

Mariner A

Last reported at 2017-Sep-21 09:50 UTC. Time now 2017-Sep-25 17:13 UTC.
Position N 32°09' E 034°25'.

Length 176 m; draft 7.8 m.

Type: Tanker. MMSI: 215817000.

Date/timePositionNaut miles runAvg speedWind from/ knotsBaromVisibWave heightAir tempDewpointWater temp
2017-Sep-21 09:50N 32°09' E 034°25'513.1
2017-Sep-21 09:28N 32°14' E 034°24'613.0
2017-Sep-21 09:00N 32°20' E 034°24'1213.1
2017-Sep-21 08:06N 32°31' E 034°21'213.4
2017-Sep-21 07:58N 32°33' E 034°20'  
2017-Sep-14 14:40N 31°41' E 034°30'0 0.0
2017-Sep-14 14:28N 31°41' E 034°30'0 0.0
2017-Sep-13 13:16N 31°41' E 034°30'0 0.0
2017-Sep-13 12:58N 31°41' E 034°30'0 0.0
2017-Sep-13 12:28N 31°41' E 034°30'0 0.0
2017-Sep-13 02:51N 31°41' E 034°30'0 0.1
2017-Sep-13 01:33N 31°41' E 034°30'0 0.0
2017-Sep-13 01:21N 31°41' E 034°30'0 0.0
2017-Sep-12 13:33N 31°41' E 034°30'0 0.0
2017-Sep-12 13:21N 31°41' E 034°30'0 0.0
2017-Sep-12 12:03N 31°41' E 034°30'0 0.0
2017-Sep-12 09:27N 31°41' E 034°30'0 0.0
2017-Sep-12 07:09N 31°41' E 034°30'0 0.0
2017-Sep-12 06:03N 31°41' E 034°30'0 0.1
2017-Sep-12 05:51N 31°41' E 034°30'2 0.2
2017-Sep-11 20:16N 31°43' E 034°29'412.2
2017-Sep-11 19:57N 31°47' E 034°28'612.9
2017-Sep-11 19:30N 31°52' E 034°27'713.0
2017-Sep-11 18:59N 31°58' E 034°23'613.1
2017-Sep-11 18:30N 32°03' E 034°19'713.2
2017-Sep-11 18:00N 32°09' E 034°15'713.4
2017-Sep-11 17:30N 32°15' E 034°11'713.7
2017-Sep-11 17:00N 32°21' E 034°07'713.6
2017-Sep-11 16:30N 32°27' E 034°03'713.6
2017-Sep-11 16:00N 32°33' E 033°59'713.8
2017-Sep-11 15:30N 32°39' E 033°55'713.8
2017-Sep-11 15:00N 32°45' E 033°51'713.8
2017-Sep-11 14:30N 32°51' E 033°47'713.7
2017-Sep-11 14:00N 32°57' E 033°43'713.8
2017-Sep-11 13:30N 33°03' E 033°39'713.6
2017-Sep-11 13:00N 33°08' E 033°34'713.5
2017-Sep-11 12:30N 33°14' E 033°29'713.6
2017-Sep-11 12:00N 33°20' E 033°25'713.6
2017-Sep-11 11:30N 33°25' E 033°21'713.6
2017-Sep-11 11:00N 33°31' E 033°17'713.7
2017-Sep-11 10:30N 33°37' E 033°14'713.5
2017-Sep-11 10:00N 33°43' E 033°10'  
Track history (hours):
 
Tides and Currents Weather Stations Pressure Air Temp Water Temp Dewpoint Dewpoint Depression Visibility Wind Speed Wind Dir Waves Ship Positions

Mariner A

Last reported at 2017-Sep-21 09:50 UTC. Time now 2017-Sep-25 17:13 UTC.
Position N 32°09' E 034°25'.

Length 176 m; draft 7.8 m.

Type: Tanker. MMSI: 215817000.

Date/timePositionNaut miles runAvg speedWind from/ knotsBaromVisibWave heightAir tempDewpointWater temp
2017-Sep-21 09:50N 32°09' E 034°25'513.1
2017-Sep-21 09:28N 32°14' E 034°24'613.0
2017-Sep-21 09:00N 32°20' E 034°24'1213.1
2017-Sep-21 08:06N 32°31' E 034°21'213.4
2017-Sep-21 07:58N 32°33' E 034°20'  
2017-Sep-14 14:40N 31°41' E 034°30'0 0.0
2017-Sep-14 14:28N 31°41' E 034°30'0 0.0
2017-Sep-13 13:16N 31°41' E 034°30'0 0.0
2017-Sep-13 12:58N 31°41' E 034°30'0 0.0
2017-Sep-13 12:28N 31°41' E 034°30'0 0.0
2017-Sep-13 02:51N 31°41' E 034°30'0 0.1
2017-Sep-13 01:33N 31°41' E 034°30'0 0.0
2017-Sep-13 01:21N 31°41' E 034°30'0 0.0
2017-Sep-12 13:33N 31°41' E 034°30'0 0.0
2017-Sep-12 13:21N 31°41' E 034°30'0 0.0
2017-Sep-12 12:03N 31°41' E 034°30'0 0.0
2017-Sep-12 09:27N 31°41' E 034°30'0 0.0
2017-Sep-12 07:09N 31°41' E 034°30'0 0.0
2017-Sep-12 06:03N 31°41' E 034°30'0 0.1
2017-Sep-12 05:51N 31°41' E 034°30'2 0.2
2017-Sep-11 20:16N 31°43' E 034°29'412.2
2017-Sep-11 19:57N 31°47' E 034°28'612.9
2017-Sep-11 19:30N 31°52' E 034°27'713.0
2017-Sep-11 18:59N 31°58' E 034°23'613.1
2017-Sep-11 18:30N 32°03' E 034°19'713.2
2017-Sep-11 18:00N 32°09' E 034°15'713.4
2017-Sep-11 17:30N 32°15' E 034°11'713.7
2017-Sep-11 17:00N 32°21' E 034°07'713.6
2017-Sep-11 16:30N 32°27' E 034°03'713.6
2017-Sep-11 16:00N 32°33' E 033°59'713.8
2017-Sep-11 15:30N 32°39' E 033°55'713.8
2017-Sep-11 15:00N 32°45' E 033°51'713.8
2017-Sep-11 14:30N 32°51' E 033°47'713.7
2017-Sep-11 14:00N 32°57' E 033°43'713.8
2017-Sep-11 13:30N 33°03' E 033°39'713.6
2017-Sep-11 13:00N 33°08' E 033°34'713.5
2017-Sep-11 12:30N 33°14' E 033°29'713.6
2017-Sep-11 12:00N 33°20' E 033°25'713.6
2017-Sep-11 11:30N 33°25' E 033°21'713.6
2017-Sep-11 11:00N 33°31' E 033°17'713.7
2017-Sep-11 10:30N 33°37' E 033°14'713.5
2017-Sep-11 10:00N 33°43' E 033°10'  

Dump ship's entire track history